Time;durP1;ratioP1;P1;durP2;ratioP2;P2;SDS_P1;SDS_P2;PMS_P1;PMS_P2;Temp;Humidity;BMP_temperature;BMP_pressure;BME280_temperature;BME280_humidity;BME280_pressure;Samples;Min_cycle;Max_cycle;Signal;HPM_P1;HPM_P2
2023/09/21 00:01:45;;;;;;;;;;;15.40;99.90;;;;;;4919174;28;21668;-66
2023/09/21 00:04:10;;;;;;;;;;;15.40;99.90;;;;;;4915830;28;19971;-66
2023/09/21 00:06:36;;;;;;;;;;;15.40;99.90;;;;;;4925294;28;19941;-66
2023/09/21 00:09:03;;;;;;;;;;;15.40;99.90;;;;;;4922249;28;19972;-66
2023/09/21 00:11:30;;;;;;;;;;;15.40;99.90;;;;;;4915222;28;19968;-66
2023/09/21 00:13:56;;;;;;;;;;;15.40;99.90;;;;;;4923397;28;19973;-66
2023/09/21 00:16:25;;;;;;;;;;;15.50;99.90;;;;;;4908079;28;20394;-66
2023/09/21 00:18:51;;;;;;;;;;;15.40;99.90;;;;;;4922415;28;19943;-66
2023/09/21 00:21:17;;;;;;;;;;;15.50;99.90;;;;;;4925197;28;19962;-66
2023/09/21 00:23:44;;;;;;;;;;;15.50;99.90;;;;;;4922353;28;22357;-66
2023/09/21 00:26:10;;;;;;;;;;;15.50;99.90;;;;;;4918829;28;19949;-67
2023/09/21 00:28:35;;;;;;;;;;;15.40;99.90;;;;;;4917845;28;19940;-66
2023/09/21 00:31:02;;;;;;;;;;;15.40;99.90;;;;;;4907847;28;19931;-65
2023/09/21 00:33:32;;;;;;;;;;;15.30;99.90;;;;;;4925146;28;19933;-66
2023/09/21 00:35:58;;;;;;;;;;;15.30;99.90;;;;;;4915852;28;21448;-65
2023/09/21 00:38:24;;;;;;;;;;;15.30;99.90;;;;;;4926128;28;20032;-65
2023/09/21 00:40:50;;;;;;;;;;;15.30;99.90;;;;;;4917099;28;20035;-66
2023/09/21 00:43:24;;;;;;;;;;;15.30;99.90;;;;;;4920811;28;19937;-65
2023/09/21 00:45:52;;;;;;;;;;;15.30;99.90;;;;;;4919095;28;19988;-65
2023/09/21 00:48:25;;;;;;;;;;;15.20;99.90;;;;;;4924766;28;20427;-65
2023/09/21 00:50:53;;;;;;;;;;;15.20;99.90;;;;;;4916593;28;20318;-65
2023/09/21 00:53:19;;;;;;;;;;;15.20;99.90;;;;;;4896350;28;20285;-66
2023/09/21 00:55:47;;;;;;;;;;;15.10;99.90;;;;;;4911591;28;23553;-66
2023/09/21 00:58:13;;;;;;;;;;;15.10;99.90;;;;;;4912084;28;20464;-66
2023/09/21 01:00:39;;;;;;;;;;;15.10;99.90;;;;;;4910407;28;20018;-65
2023/09/21 01:03:12;;;;;;;;;;;15.10;99.90;;;;;;4899202;28;19934;-65
2023/09/21 01:05:39;;;;;;;;;;;15.10;99.90;;;;;;4924197;28;20270;-65
2023/09/21 01:08:09;;;;;;;;;;;15.10;99.90;;;;;;4918846;28;19920;-65
2023/09/21 01:10:36;;;;;;;;;;;15.00;99.90;;;;;;4921486;28;19922;-65
2023/09/21 01:13:03;;;;;;;;;;;14.90;99.90;;;;;;4926300;28;19933;-66
2023/09/21 01:15:29;;;;;;;;;;;15.00;99.90;;;;;;4929720;28;19925;-66
2023/09/21 01:17:54;;;;;;;;;;;15.00;99.90;;;;;;4914182;28;20506;-66
2023/09/21 01:20:23;;;;;;;;;;;15.10;99.90;;;;;;4913796;28;19938;-63
2023/09/21 01:22:52;;;;;;;;;;;15.10;99.90;;;;;;4924381;28;19917;-65
2023/09/21 01:25:17;;;;;;;;;;;15.10;99.90;;;;;;4927217;28;19918;-65
2023/09/21 01:27:43;;;;;;;;;;;15.20;99.90;;;;;;4930689;28;19926;-63
2023/09/21 01:30:11;;;;;;;;;;;15.20;99.90;;;;;;4913622;28;20289;-65
2023/09/21 01:32:40;;;;;;;;;;;15.10;99.90;;;;;;4928479;28;19906;-66
2023/09/21 01:35:07;;;;;;;;;;;15.10;99.90;;;;;;4930049;28;19914;-65
2023/09/21 01:37:32;;;;;;;;;;;15.10;99.90;;;;;;4921601;28;20528;-65
2023/09/21 01:39:58;;;;;;;;;;;15.10;99.90;;;;;;4928601;28;19923;-65
2023/09/21 01:42:25;;;;;;;;;;;15.10;99.90;;;;;;4921073;28;20022;-65
2023/09/21 01:44:51;;;;;;;;;;;15.20;99.90;;;;;;4924903;28;19922;-65
2023/09/21 01:47:21;;;;;;;;;;;15.20;99.90;;;;;;4920472;28;20291;-64
2023/09/21 01:49:46;;;;;;;;;;;15.20;99.90;;;;;;4918540;28;19914;-65
2023/09/21 01:52:12;;;;;;;;;;;15.20;99.90;;;;;;4915748;28;20271;-65
2023/09/21 01:54:38;;;;;;;;;;;15.20;99.90;;;;;;4915286;28;22608;-65
2023/09/21 01:57:08;;;;;;;;;;;15.10;99.90;;;;;;4910424;28;20040;-65
2023/09/21 01:59:33;;;;;;;;;;;15.20;99.90;;;;;;4908706;28;19917;-65
2023/09/21 02:01:59;;;;;;;;;;;15.10;99.90;;;;;;4905383;28;20041;-66
2023/09/21 02:04:25;;;;;;;;;;;15.10;99.90;;;;;;4908728;28;20936;-65
2023/09/21 02:06:50;;;;;;;;;;;15.10;99.90;;;;;;4903616;28;19921;-64
2023/09/21 02:09:16;;;;;;;;;;;15.10;99.90;;;;;;4912565;28;20085;-65
2023/09/21 02:11:44;;;;;;;;;;;15.10;99.90;;;;;;4909160;28;20017;-65
2023/09/21 02:14:11;;;;;;;;;;;15.10;99.90;;;;;;4915759;28;20299;-65
2023/09/21 02:16:37;;;;;;;;;;;15.10;99.90;;;;;;4913765;28;21019;-65
2023/09/21 02:19:02;;;;;;;;;;;15.00;99.90;;;;;;4904355;28;19969;-65
2023/09/21 02:21:29;;;;;;;;;;;15.00;99.90;;;;;;4912591;28;20946;-65
2023/09/21 02:23:55;;;;;;;;;;;15.00;99.90;;;;;;4918068;28;19914;-65
2023/09/21 02:26:21;;;;;;;;;;;15.00;99.90;;;;;;4910459;28;20392;-66
2023/09/21 02:28:48;;;;;;;;;;;14.90;99.90;;;;;;4913206;28;19918;-65
2023/09/21 02:31:13;;;;;;;;;;;14.90;99.90;;;;;;4911629;28;20005;-65
2023/09/21 02:33:42;;;;;;;;;;;14.90;99.90;;;;;;4921401;28;19914;-65
2023/09/21 02:36:18;;;;;;;;;;;14.80;99.90;;;;;;4920024;28;19921;-65
2023/09/21 02:38:43;;;;;;;;;;;14.80;99.90;;;;;;4920950;28;19914;-66
2023/09/21 02:41:09;;;;;;;;;;;14.80;99.90;;;;;;4914435;28;20294;-65
2023/09/21 02:43:34;;;;;;;;;;;14.80;99.90;;;;;;4913991;28;19919;-65
2023/09/21 02:46:00;;;;;;;;;;;14.80;99.90;;;;;;4912327;28;19993;-64
2023/09/21 02:48:25;;;;;;;;;;;14.70;99.90;;;;;;4913919;28;20058;-66
2023/09/21 02:50:51;;;;;;;;;;;14.80;99.90;;;;;;4915401;28;19910;-65
2023/09/21 02:53:16;;;;;;;;;;;14.80;99.90;;;;;;4917003;28;19919;-65
2023/09/21 02:55:45;;;;;;;;;;;14.70;99.90;;;;;;4906311;28;20375;-65
2023/09/21 02:58:12;;;;;;;;;;;14.70;99.90;;;;;;4910152;28;19919;-65
2023/09/21 03:00:45;;;;;;;;;;;14.70;99.90;;;;;;4915869;28;20021;-65
2023/09/21 03:03:14;;;;;;;;;;;14.70;99.90;;;;;;4921304;28;19926;-65
2023/09/21 03:05:41;;;;;;;;;;;14.70;99.90;;;;;;4926160;28;19917;-65
2023/09/21 03:08:13;;;;;;;;;;;14.70;99.90;;;;;;4910494;28;19929;-66
2023/09/21 03:10:49;;;;;;;;;;;14.70;99.90;;;;;;4920090;28;20013;-65
2023/09/21 03:13:19;;;;;;;;;;;14.70;99.90;;;;;;4905639;28;19981;-65
2023/09/21 03:15:45;;;;;;;;;;;14.70;99.90;;;;;;4916014;28;19978;-65
2023/09/21 03:18:10;;;;;;;;;;;14.80;99.90;;;;;;4916821;28;19961;-66
2023/09/21 03:20:36;;;;;;;;;;;14.80;99.90;;;;;;4913731;28;20300;-65
2023/09/21 03:23:06;;;;;;;;;;;14.80;99.90;;;;;;4915423;28;19918;-65
2023/09/21 03:25:40;;;;;;;;;;;14.80;99.90;;;;;;4915104;28;19936;-65
2023/09/21 03:28:10;;;;;;;;;;;14.70;99.90;;;;;;4914668;28;19995;-65
2023/09/21 03:30:39;;;;;;;;;;;14.70;99.90;;;;;;4913100;28;19997;-65
2023/09/21 03:33:09;;;;;;;;;;;14.70;99.90;;;;;;4924277;28;19918;-65
2023/09/21 03:35:35;;;;;;;;;;;14.70;99.90;;;;;;4922277;28;20067;-66
2023/09/21 03:38:00;;;;;;;;;;;14.70;99.90;;;;;;4924689;28;20726;-65
2023/09/21 03:40:26;;;;;;;;;;;14.70;99.90;;;;;;4924418;28;20005;-65
2023/09/21 03:42:55;;;;;;;;;;;14.70;99.90;;;;;;4924204;28;19918;-65
2023/09/21 03:45:24;;;;;;;;;;;14.80;99.90;;;;;;4912968;28;20839;-65
2023/09/21 03:47:53;;;;;;;;;;;14.80;99.90;;;;;;4917322;28;19953;-65
2023/09/21 03:50:18;;;;;;;;;;;14.70;99.90;;;;;;4912004;28;19918;-65
2023/09/21 03:52:44;;;;;;;;;;;14.70;99.90;;;;;;4910513;28;19925;-65
2023/09/21 03:55:15;;;;;;;;;;;14.70;99.90;;;;;;4911571;28;19941;-64
2023/09/21 03:57:47;;;;;;;;;;;14.70;99.90;;;;;;4916821;28;19953;-64
2023/09/21 04:00:26;;;;;;;;;;;14.70;99.90;;;;;;4919064;28;19930;-65
2023/09/21 04:02:52;;;;;;;;;;;14.70;99.90;;;;;;4914148;28;19926;-65
2023/09/21 04:05:18;;;;;;;;;;;14.70;99.90;;;;;;4918218;28;20354;-65
2023/09/21 04:07:47;;;;;;;;;;;14.70;99.90;;;;;;4907286;28;20335;-65
2023/09/21 04:10:13;;;;;;;;;;;14.70;99.90;;;;;;4919943;28;19922;-65
2023/09/21 04:12:39;;;;;;;;;;;14.80;99.90;;;;;;4918296;28;19910;-65
2023/09/21 04:15:08;;;;;;;;;;;14.80;99.90;;;;;;4904141;28;19919;-65
2023/09/21 04:17:35;;;;;;;;;;;14.80;99.90;;;;;;4912047;28;21730;-65
2023/09/21 04:20:01;;;;;;;;;;;14.80;99.90;;;;;;4908673;28;19926;-64
2023/09/21 04:22:26;;;;;;;;;;;14.80;99.90;;;;;;4909691;28;19919;-65
2023/09/21 04:24:52;;;;;;;;;;;14.80;99.90;;;;;;4915714;28;19918;-65
2023/09/21 04:27:17;;;;;;;;;;;14.70;99.90;;;;;;4924093;28;20718;-65
2023/09/21 04:29:43;;;;;;;;;;;14.70;99.90;;;;;;4925101;28;19976;-65
2023/09/21 04:32:09;;;;;;;;;;;14.60;99.90;;;;;;4935113;28;19969;-65
2023/09/21 04:34:36;;;;;;;;;;;14.60;99.90;;;;;;4922641;28;19949;-65
2023/09/21 04:37:02;;;;;;;;;;;14.60;99.90;;;;;;4917761;28;19949;-65
2023/09/21 04:39:28;;;;;;;;;;;14.60;99.90;;;;;;4917317;28;19910;-65
2023/09/21 04:41:53;;;;;;;;;;;14.60;99.90;;;;;;4923260;28;19958;-65
2023/09/21 04:44:19;;;;;;;;;;;14.50;99.90;;;;;;4929262;28;19969;-65
2023/09/21 04:46:44;;;;;;;;;;;14.50;99.90;;;;;;4917282;28;19920;-66
2023/09/21 04:49:10;;;;;;;;;;;14.50;99.90;;;;;;4918357;28;20025;-65
2023/09/21 04:51:35;;;;;;;;;;;14.50;99.90;;;;;;4918102;28;20153;-65
2023/09/21 04:54:01;;;;;;;;;;;14.50;99.90;;;;;;4917001;28;19919;-65
2023/09/21 04:56:27;;;;;;;;;;;14.60;99.90;;;;;;4918608;28;19969;-65
2023/09/21 04:58:55;;;;;;;;;;;14.60;99.90;;;;;;4916402;28;19960;-64
2023/09/21 05:01:24;;;;;;;;;;;14.60;99.90;;;;;;4917970;28;19926;-65
2023/09/21 05:03:49;;;;;;;;;;;14.60;99.90;;;;;;4919626;28;20346;-65
2023/09/21 05:06:18;;;;;;;;;;;14.70;99.90;;;;;;4913616;28;20460;-65
2023/09/21 05:08:44;;;;;;;;;;;14.70;99.90;;;;;;4925655;28;20372;-65
2023/09/21 05:11:10;;;;;;;;;;;14.80;99.90;;;;;;4918023;28;19925;-65
2023/09/21 05:13:36;;;;;;;;;;;14.80;99.90;;;;;;4923875;28;19934;-64
2023/09/21 05:16:02;;;;;;;;;;;14.90;99.90;;;;;;4913111;28;19962;-65
2023/09/21 05:18:27;;;;;;;;;;;15.00;99.90;;;;;;4913087;28;19977;-65
2023/09/21 05:20:53;;;;;;;;;;;15.10;99.90;;;;;;4912217;28;19962;-65
2023/09/21 05:23:19;;;;;;;;;;;15.10;99.90;;;;;;4918724;28;19925;-65
2023/09/21 05:25:44;;;;;;;;;;;15.20;99.90;;;;;;4909329;28;19926;-65
2023/09/21 05:28:10;;;;;;;;;;;15.20;99.90;;;;;;4907385;28;19918;-64
2023/09/21 05:30:35;;;;;;;;;;;15.20;99.90;;;;;;4911768;28;19922;-65
2023/09/21 05:33:01;;;;;;;;;;;15.30;99.90;;;;;;4906293;28;19918;-65
2023/09/21 05:35:27;;;;;;;;;;;15.30;99.90;;;;;;4898543;28;19919;-65
2023/09/21 05:37:53;;;;;;;;;;;15.40;99.90;;;;;;4912376;28;19934;-64
2023/09/21 05:40:19;;;;;;;;;;;15.40;99.90;;;;;;4917519;28;20007;-65
2023/09/21 05:42:45;;;;;;;;;;;15.40;99.90;;;;;;4917761;28;19910;-65
2023/09/21 05:45:11;;;;;;;;;;;15.40;99.90;;;;;;4917984;28;19948;-66
2023/09/21 05:47:37;;;;;;;;;;;15.50;99.90;;;;;;4919491;28;20013;-66
2023/09/21 05:50:05;;;;;;;;;;;15.50;99.90;;;;;;4910828;28;19990;-66
2023/09/21 05:52:33;;;;;;;;;;;15.60;99.90;;;;;;4914188;28;19918;-66
2023/09/21 05:54:59;;;;;;;;;;;15.70;99.90;;;;;;4908374;28;19918;-69
2023/09/21 05:57:24;;;;;;;;;;;15.70;99.90;;;;;;4903959;28;19915;-66
2023/09/21 05:59:51;;;;;;;;;;;15.80;99.90;;;;;;4923878;28;20548;-66
2023/09/21 06:02:16;;;;;;;;;;;15.80;99.90;;;;;;4922333;28;20633;-66
2023/09/21 06:04:42;;;;;;;;;;;15.90;99.90;;;;;;4921938;28;19918;-66
2023/09/21 06:07:08;;;;;;;;;;;16.00;99.90;;;;;;4919844;28;19910;-66
2023/09/21 06:09:33;;;;;;;;;;;16.10;99.90;;;;;;4914972;28;20467;-66
2023/09/21 06:11:59;;;;;;;;;;;16.10;99.90;;;;;;4912804;28;19921;-66
2023/09/21 06:14:24;;;;;;;;;;;16.20;99.90;;;;;;4919437;28;19926;-66
2023/09/21 06:16:51;;;;;;;;;;;16.20;99.90;;;;;;4913251;28;19950;-66
2023/09/21 06:19:17;;;;;;;;;;;16.20;99.90;;;;;;4912283;28;19925;-66
2023/09/21 06:21:45;;;;;;;;;;;16.30;99.90;;;;;;4910535;28;19926;-66
2023/09/21 06:24:11;;;;;;;;;;;16.20;99.90;;;;;;4909844;28;20855;-66
2023/09/21 06:26:37;;;;;;;;;;;16.20;99.90;;;;;;4918776;28;19914;-66
2023/09/21 06:29:03;;;;;;;;;;;16.20;99.90;;;;;;4914777;28;19915;-66
2023/09/21 06:31:29;;;;;;;;;;;16.30;99.90;;;;;;4915473;28;19911;-66
2023/09/21 06:33:58;;;;;;;;;;;16.30;99.90;;;;;;4922481;28;19914;-66
2023/09/21 06:36:27;;;;;;;;;;;16.40;99.90;;;;;;4894682;28;19918;-66
2023/09/21 06:38:53;;;;;;;;;;;16.40;99.90;;;;;;4922530;28;19914;-66
2023/09/21 06:41:19;;;;;;;;;;;16.40;99.90;;;;;;4929409;28;19927;-66
2023/09/21 06:43:45;;;;;;;;;;;16.50;99.90;;;;;;4927042;28;19921;-66
2023/09/21 06:46:11;;;;;;;;;;;16.50;99.90;;;;;;4927442;28;20057;-66
2023/09/21 06:48:37;;;;;;;;;;;16.60;99.90;;;;;;4921567;28;19924;-66
2023/09/21 06:51:04;;;;;;;;;;;16.60;99.90;;;;;;4931842;28;19919;-66
2023/09/21 06:53:31;;;;;;;;;;;16.70;99.90;;;;;;4924138;28;20203;-66
2023/09/21 06:55:56;;;;;;;;;;;16.70;99.90;;;;;;4921993;28;19921;-65
2023/09/21 06:58:22;;;;;;;;;;;16.90;99.90;;;;;;4918966;28;19914;-66
2023/09/21 07:00:48;;;;;;;;;;;16.90;99.90;;;;;;4912404;28;19919;-65
2023/09/21 07:03:15;;;;;;;;;;;17.00;99.90;;;;;;4913006;28;19993;-65
2023/09/21 07:05:44;;;;;;;;;;;17.10;99.90;;;;;;4921981;28;20301;-65
2023/09/21 07:08:12;;;;;;;;;;;17.20;99.90;;;;;;4920864;28;19914;-65
2023/09/21 07:10:38;;;;;;;;;;;17.30;99.90;;;;;;4918104;28;19925;-65
2023/09/21 07:13:07;;;;;;;;;;;17.40;99.90;;;;;;4912863;28;20299;-65
2023/09/21 07:15:33;;;;;;;;;;;17.50;99.90;;;;;;4924734;28;19919;-65
2023/09/21 07:17:59;;;;;;;;;;;17.70;99.90;;;;;;4928859;28;19925;-65
2023/09/21 07:20:26;;;;;;;;;;;17.80;99.90;;;;;;4911433;28;20719;-66
2023/09/21 07:22:52;;;;;;;;;;;18.10;99.90;;;;;;4909232;28;19946;-65
2023/09/21 07:25:17;;;;;;;;;;;18.40;99.90;;;;;;4922698;28;20005;-65
2023/09/21 07:27:44;;;;;;;;;;;18.70;99.90;;;;;;4910402;28;20397;-66
2023/09/21 07:30:09;;;;;;;;;;;18.90;99.90;;;;;;4921550;28;19941;-66
2023/09/21 07:32:35;;;;;;;;;;;19.10;99.90;;;;;;4925981;28;20004;-65
2023/09/21 07:35:04;;;;;;;;;;;19.30;99.90;;;;;;4911913;28;20005;-65
2023/09/21 07:37:30;;;;;;;;;;;19.40;99.90;;;;;;4921986;28;19918;-65
2023/09/21 07:39:56;;;;;;;;;;;19.70;99.90;;;;;;4919114;28;19974;-65
2023/09/21 07:42:22;;;;;;;;;;;19.80;99.90;;;;;;4914765;28;20060;-65
2023/09/21 07:44:48;;;;;;;;;;;20.00;99.90;;;;;;4922643;28;21284;-65
2023/09/21 07:47:14;;;;;;;;;;;20.20;99.90;;;;;;4926267;28;19922;-65
2023/09/21 07:49:39;;;;;;;;;;;20.40;99.90;;;;;;4923776;28;19918;-66
2023/09/21 07:52:07;;;;;;;;;;;20.60;99.90;;;;;;4920718;28;20030;-66
2023/09/21 07:54:33;;;;;;;;;;;20.60;99.90;;;;;;4916413;28;20447;-65
2023/09/21 07:56:59;;;;;;;;;;;20.70;99.90;;;;;;4917999;28;19935;-65
2023/09/21 07:59:25;;;;;;;;;;;20.80;99.90;;;;;;4929424;28;19942;-65
2023/09/21 08:01:51;;;;;;;;;;;20.70;99.90;;;;;;4930044;28;19962;-66
2023/09/21 08:04:17;;;;;;;;;;;20.60;99.90;;;;;;4925627;28;20026;-65
2023/09/21 08:06:43;;;;;;;;;;;20.60;99.90;;;;;;4906930;28;20021;-65
2023/09/21 08:09:08;;;;;;;;;;;20.70;99.90;;;;;;4931138;28;19933;-65
2023/09/21 08:11:34;;;;;;;;;;;20.70;99.90;;;;;;4926621;28;19963;-65
2023/09/21 08:13:59;;;;;;;;;;;20.60;99.90;;;;;;4926318;28;19962;-65
2023/09/21 08:16:26;;;;;;;;;;;20.60;99.90;;;;;;4920785;28;19929;-65
2023/09/21 08:18:52;;;;;;;;;;;20.60;99.90;;;;;;4926235;28;19932;-65
2023/09/21 08:21:17;;;;;;;;;;;20.60;99.90;;;;;;4926093;28;20740;-65
2023/09/21 08:23:43;;;;;;;;;;;20.70;99.90;;;;;;4919394;28;19978;-65
2023/09/21 08:26:08;;;;;;;;;;;20.90;99.90;;;;;;4910234;28;19945;-65
2023/09/21 08:28:34;;;;;;;;;;;21.10;99.90;;;;;;4909076;28;19942;-66
2023/09/21 08:30:59;;;;;;;;;;;21.30;99.90;;;;;;4905906;28;19935;-64
2023/09/21 08:33:25;;;;;;;;;;;21.40;99.90;;;;;;4922214;28;19932;-65
2023/09/21 08:35:50;;;;;;;;;;;21.40;99.90;;;;;;4917385;28;19958;-65
2023/09/21 08:38:19;;;;;;;;;;;21.50;99.90;;;;;;4926397;28;19975;-65
2023/09/21 08:40:47;;;;;;;;;;;21.50;99.90;;;;;;4921379;28;19966;-65
2023/09/21 08:43:24;;;;;;;;;;;21.60;99.90;;;;;;4921202;28;19934;-65
2023/09/21 08:45:50;;;;;;;;;;;21.70;99.90;;;;;;4915298;28;19948;-65
2023/09/21 08:48:18;;;;;;;;;;;21.80;99.90;;;;;;4926860;28;19938;-65
2023/09/21 08:50:44;;;;;;;;;;;21.90;99.90;;;;;;4931729;28;21150;-65
2023/09/21 08:53:12;;;;;;;;;;;22.00;99.90;;;;;;4927518;28;19938;-65
2023/09/21 08:55:39;;;;;;;;;;;22.10;99.90;;;;;;4919020;28;20767;-65
2023/09/21 08:58:06;;;;;;;;;;;22.10;99.90;;;;;;4922720;28;19941;-65
2023/09/21 09:00:33;;;;;;;;;;;22.10;99.90;;;;;;4927407;28;19961;-66
2023/09/21 09:02:59;;;;;;;;;;;22.10;99.90;;;;;;4934680;28;20450;-66
2023/09/21 09:05:24;;;;;;;;;;;22.10;99.90;;;;;;4932315;28;19932;-65
2023/09/21 09:07:51;;;;;;;;;;;22.00;99.90;;;;;;4928270;28;19986;-66
2023/09/21 09:10:18;;;;;;;;;;;22.00;99.90;;;;;;4927860;28;19927;-65
2023/09/21 09:12:43;;;;;;;;;;;21.90;99.90;;;;;;4921145;28;20046;-66
2023/09/21 09:15:09;;;;;;;;;;;21.90;99.90;;;;;;4928255;28;19930;-66
2023/09/21 09:17:35;;;;;;;;;;;21.70;99.90;;;;;;4933124;28;19962;-66
2023/09/21 09:20:05;;;;;;;;;;;21.40;99.90;;;;;;4930664;28;21604;-66
2023/09/21 09:22:33;;;;;;;;;;;21.30;99.90;;;;;;4931460;28;19937;-66
2023/09/21 09:25:06;;;;;;;;;;;21.10;99.90;;;;;;4930853;28;20776;-66
2023/09/21 09:27:32;;;;;;;;;;;20.90;99.90;;;;;;4933946;28;20424;-65
2023/09/21 09:29:57;;;;;;;;;;;20.70;99.90;;;;;;4935707;28;19910;-66
2023/09/21 09:32:24;;;;;;;;;;;20.60;99.90;;;;;;4938419;28;19922;-66
2023/09/21 09:34:49;;;;;;;;;;;20.50;99.90;;;;;;4936787;28;19948;-65
2023/09/21 09:37:15;;;;;;;;;;;20.50;99.90;;;;;;4930507;28;20400;-66
2023/09/21 09:39:42;;;;;;;;;;;20.50;99.90;;;;;;4930457;28;20706;-66
2023/09/21 09:42:08;;;;;;;;;;;20.50;99.90;;;;;;4919334;28;19996;-66
2023/09/21 09:44:35;;;;;;;;;;;20.50;99.90;;;;;;4926339;28;19935;-66
2023/09/21 09:47:03;;;;;;;;;;;20.40;99.90;;;;;;4916917;28;20756;-65
2023/09/21 09:49:29;;;;;;;;;;;20.40;99.90;;;;;;4929297;28;19910;-66
2023/09/21 09:51:56;;;;;;;;;;;20.40;99.90;;;;;;4923778;28;19975;-66
2023/09/21 09:54:21;;;;;;;;;;;20.40;99.90;;;;;;4911584;28;19937;-66
2023/09/21 09:56:51;;;;;;;;;;;20.30;99.90;;;;;;4927870;28;19921;-66
2023/09/21 09:59:19;;;;;;;;;;;20.20;99.90;;;;;;4920005;28;19963;-66
2023/09/21 10:01:45;;;;;;;;;;;20.20;99.90;;;;;;4925753;28;20343;-66
2023/09/21 10:04:10;;;;;;;;;;;20.20;99.90;;;;;;4919432;28;19936;-66
2023/09/21 10:06:37;;;;;;;;;;;20.20;99.90;;;;;;4922895;28;20178;-66
2023/09/21 10:09:09;;;;;;;;;;;20.30;99.90;;;;;;4919186;28;19919;-66
2023/09/21 10:11:37;;;;;;;;;;;20.30;99.90;;;;;;4921896;28;19933;-67
2023/09/21 10:14:03;;;;;;;;;;;20.40;99.90;;;;;;4933389;28;20653;-67
2023/09/21 10:16:31;;;;;;;;;;;20.40;99.90;;;;;;4931706;28;20729;-66
2023/09/21 10:19:00;;;;;;;;;;;20.40;99.90;;;;;;4932704;28;20267;-67
2023/09/21 10:21:33;;;;;;;;;;;20.30;99.90;;;;;;4935032;28;20418;-66
2023/09/21 10:24:16;;;;;;;;;;;20.30;99.90;;;;;;4929109;28;20075;-66
2023/09/21 10:26:43;;;;;;;;;;;20.30;99.90;;;;;;4928930;28;19983;-66
2023/09/21 10:29:12;;;;;;;;;;;20.30;99.90;;;;;;4919559;28;20509;-66
2023/09/21 10:31:39;;;;;;;;;;;20.30;99.90;;;;;;4918511;28;19996;-66
2023/09/21 10:34:28;;;;;;;;;;;20.30;99.90;;;;;;4925323;28;19936;-66
2023/09/21 10:37:10;;;;;;;;;;;20.30;99.90;;;;;;4931427;28;20130;-66
2023/09/21 10:39:39;;;;;;;;;;;20.30;99.90;;;;;;4933314;28;19939;-65
2023/09/21 10:42:06;;;;;;;;;;;20.30;99.90;;;;;;4932975;28;19956;-66
2023/09/21 10:44:51;;;;;;;;;;;20.30;99.90;;;;;;4936202;28;19911;-66
2023/09/21 10:47:20;;;;;;;;;;;20.30;99.90;;;;;;4918665;28;19934;-66
2023/09/21 10:49:46;;;;;;;;;;;20.30;99.90;;;;;;4933093;28;20341;-66
2023/09/21 10:52:12;;;;;;;;;;;20.30;99.90;;;;;;4933835;28;19954;-67
2023/09/21 10:54:37;;;;;;;;;;;20.40;99.90;;;;;;4933617;28;19939;-67
2023/09/21 10:57:03;;;;;;;;;;;20.40;99.90;;;;;;4932493;28;20037;-67
2023/09/21 10:59:29;;;;;;;;;;;20.50;99.90;;;;;;4932049;28;19953;-67
2023/09/21 11:01:55;;;;;;;;;;;20.60;99.90;;;;;;4936272;28;19958;-66
2023/09/21 11:04:21;;;;;;;;;;;20.60;99.90;;;;;;4928191;28;19973;-66
2023/09/21 11:06:46;;;;;;;;;;;20.70;99.90;;;;;;4934982;28;20938;-65
2023/09/21 11:09:12;;;;;;;;;;;20.80;99.90;;;;;;4933362;28;19939;-66
2023/09/21 11:11:37;;;;;;;;;;;20.90;99.90;;;;;;4932572;28;20295;-65
2023/09/21 11:14:05;;;;;;;;;;;21.10;99.90;;;;;;4933719;28;19973;-67
2023/09/21 11:16:31;;;;;;;;;;;21.10;99.90;;;;;;4934950;28;19948;-66
2023/09/21 11:18:56;;;;;;;;;;;21.20;99.90;;;;;;4925680;28;19934;-64
2023/09/21 11:21:22;;;;;;;;;;;21.20;99.90;;;;;;4932736;28;19962;-64
2023/09/21 11:23:49;;;;;;;;;;;21.30;99.90;;;;;;4924501;28;19959;-64
2023/09/21 11:26:15;;;;;;;;;;;21.30;99.90;;;;;;4917058;28;19973;-64
2023/09/21 11:28:41;;;;;;;;;;;21.30;99.90;;;;;;4933564;28;19935;-64
2023/09/21 11:31:08;;;;;;;;;;;21.30;99.90;;;;;;4936144;28;20297;-64
2023/09/21 11:33:36;;;;;;;;;;;21.30;99.90;;;;;;4935399;28;19929;-64
2023/09/21 11:36:04;;;;;;;;;;;21.40;99.90;;;;;;4915439;28;20153;-65
2023/09/21 11:38:33;;;;;;;;;;;21.40;99.90;;;;;;4933311;28;20347;-64
2023/09/21 11:40:59;;;;;;;;;;;21.50;99.90;;;;;;4929319;28;19951;-64
2023/09/21 11:43:25;;;;;;;;;;;21.50;99.90;;;;;;4935595;28;19984;-64
2023/09/21 11:45:52;;;;;;;;;;;21.50;99.90;;;;;;4933567;28;19984;-64
2023/09/21 11:48:19;;;;;;;;;;;21.60;99.90;;;;;;4932135;28;19928;-65
2023/09/21 11:50:46;;;;;;;;;;;21.60;99.90;;;;;;4929667;28;19930;-65
2023/09/21 11:53:12;;;;;;;;;;;21.60;99.90;;;;;;4931907;28;19914;-65
2023/09/21 11:55:37;;;;;;;;;;;21.60;99.90;;;;;;4921827;28;20390;-65
2023/09/21 11:58:07;;;;;;;;;;;21.60;99.90;;;;;;4913946;28;20081;-65
2023/09/21 12:00:49;;;;;;;;;;;21.60;99.90;;;;;;4921658;28;19927;-65
2023/09/21 12:03:20;;;;;;;;;;;21.70;99.90;;;;;;4908781;28;19957;-65
2023/09/21 12:05:46;;;;;;;;;;;21.70;99.90;;;;;;4927580;28;20367;-65
2023/09/21 12:08:14;;;;;;;;;;;21.70;99.90;;;;;;4926251;28;19918;-65
2023/09/21 12:10:52;;;;;;;;;;;21.80;99.90;;;;;;4918960;28;19918;-65
2023/09/21 12:13:18;;;;;;;;;;;21.90;99.90;;;;;;4925742;28;19926;-65
2023/09/21 12:15:44;;;;;;;;;;;22.10;99.90;;;;;;4923717;28;20781;-65
2023/09/21 12:18:10;;;;;;;;;;;22.20;99.90;;;;;;4927653;28;20013;-64
2023/09/21 12:20:36;;;;;;;;;;;22.40;99.90;;;;;;4928924;28;19962;-65
2023/09/21 12:23:05;;;;;;;;;;;22.60;99.90;;;;;;4926385;28;19922;-64
2023/09/21 12:25:34;;;;;;;;;;;22.70;99.90;;;;;;4923860;28;19921;-65
2023/09/21 12:27:59;;;;;;;;;;;22.80;99.90;;;;;;4927742;28;19915;-66
2023/09/21 12:30:25;;;;;;;;;;;22.90;99.90;;;;;;4925998;28;19993;-66
2023/09/21 12:32:50;;;;;;;;;;;23.00;99.90;;;;;;4913341;28;19925;-66
2023/09/21 12:35:21;;;;;;;;;;;23.00;99.90;;;;;;4924211;28;19965;-66
2023/09/21 12:37:46;;;;;;;;;;;23.10;99.90;;;;;;4933384;28;20347;-65
2023/09/21 12:40:15;;;;;;;;;;;23.20;99.90;;;;;;4928875;28;19965;-66
2023/09/21 12:42:43;;;;;;;;;;;23.40;99.90;;;;;;4931363;28;19954;-66
2023/09/21 12:45:11;;;;;;;;;;;23.40;99.90;;;;;;4925190;28;20276;-67
2023/09/21 12:47:37;;;;;;;;;;;23.60;99.90;;;;;;4929327;28;20282;-67
2023/09/21 12:50:03;;;;;;;;;;;23.70;99.90;;;;;;4933594;28;19915;-68
2023/09/21 12:52:29;;;;;;;;;;;23.70;99.90;;;;;;4934953;28;19941;-67
2023/09/21 12:54:55;;;;;;;;;;;23.70;99.90;;;;;;4933825;28;20188;-68
2023/09/21 12:57:21;;;;;;;;;;;23.80;99.90;;;;;;4932883;28;19915;-68
2023/09/21 12:59:46;;;;;;;;;;;23.90;99.90;;;;;;4929151;28;20017;-68
2023/09/21 13:02:12;;;;;;;;;;;23.90;99.90;;;;;;4921343;28;20025;-67
2023/09/21 13:04:38;;;;;;;;;;;24.00;99.90;;;;;;4935231;28;20008;-68
2023/09/21 13:07:04;;;;;;;;;;;24.00;99.90;;;;;;4923151;28;20442;-67
2023/09/21 13:09:29;;;;;;;;;;;24.10;99.90;;;;;;4934370;28;19919;-68
2023/09/21 13:11:55;;;;;;;;;;;24.10;99.90;;;;;;4936972;28;19925;-68
2023/09/21 13:14:21;;;;;;;;;;;24.10;99.90;;;;;;4930885;28;20013;-68
2023/09/21 13:16:46;;;;;;;;;;;24.20;99.90;;;;;;4942504;28;20018;-68
2023/09/21 13:19:14;;;;;;;;;;;24.30;99.90;;;;;;4942594;28;19953;-68
2023/09/21 13:21:41;;;;;;;;;;;24.30;99.90;;;;;;4931899;28;20017;-67
2023/09/21 13:24:07;;;;;;;;;;;24.40;99.90;;;;;;4930488;28;19925;-67
2023/09/21 13:26:33;;;;;;;;;;;24.40;99.90;;;;;;4935871;28;19916;-67
2023/09/21 13:28:58;;;;;;;;;;;24.50;99.90;;;;;;4930699;28;19925;-68
2023/09/21 13:31:25;;;;;;;;;;;24.50;99.90;;;;;;4928527;28;20033;-67
2023/09/21 13:33:51;;;;;;;;;;;24.50;99.90;;;;;;4926571;28;20240;-67
2023/09/21 13:36:17;;;;;;;;;;;24.50;99.90;;;;;;4922755;28;19976;-68
2023/09/21 13:38:43;;;;;;;;;;;24.50;99.90;;;;;;4929214;28;20483;-67
2023/09/21 13:41:10;;;;;;;;;;;24.60;99.90;;;;;;4930596;28;19926;-67
2023/09/21 13:43:37;;;;;;;;;;;24.70;99.90;;;;;;4930355;28;19915;-67
2023/09/21 13:46:04;;;;;;;;;;;24.80;99.90;;;;;;4932682;28;19929;-66
2023/09/21 13:48:32;;;;;;;;;;;24.90;99.90;;;;;;4932848;28;20039;-67
2023/09/21 13:50:59;;;;;;;;;;;25.10;99.90;;;;;;4931396;28;21218;-66
2023/09/21 13:53:25;;;;;;;;;;;25.30;99.90;;;;;;4930251;28;20009;-67
2023/09/21 13:55:52;;;;;;;;;;;25.40;99.90;;;;;;4936265;28;19921;-66
2023/09/21 13:58:18;;;;;;;;;;;25.40;99.90;;;;;;4932596;28;19918;-66
2023/09/21 14:00:43;;;;;;;;;;;25.40;99.90;;;;;;4930911;28;19925;-66
2023/09/21 14:03:09;;;;;;;;;;;25.50;99.90;;;;;;4929837;28;19929;-66
2023/09/21 14:05:34;;;;;;;;;;;25.60;99.90;;;;;;4938058;28;19928;-66
2023/09/21 14:08:00;;;;;;;;;;;25.70;99.90;;;;;;4927497;28;19928;-66
2023/09/21 14:10:25;;;;;;;;;;;25.70;99.90;;;;;;4924276;28;19921;-66
2023/09/21 14:12:51;;;;;;;;;;;25.80;99.90;;;;;;4910527;28;20383;-67
2023/09/21 14:15:17;;;;;;;;;;;25.70;99.90;;;;;;4912186;28;20371;-66